IZ0DPP-3 San Gemini IT current weather conditions

sailwx.info

Wind from 047 at 0 knots gusting 3

Air temperature 21.1° C
Dewpoint 13.8° C

Last reported at 2020-Aug-09 01:41 UTC.
Time now 2020-Aug-09 20:21 UTC

Location: N 42°36' E 012°34'.
View on Google Maps.

See reports from other nearby stations

  
Tides and Currents Weather Stations Pressure Air Temp Water Temp Dewpoint Dewpoint Depression Visibility Wind Speed Wind Dir Waves Ship Positions
date/time (UTC)wind fromknots sea level pressurealtimeterstation pressurevisibilityair tempwater tempwave heightnotes
2020-Aug-09 01:41 047 0 gusting 3 21.1
2020-Aug-09 01:39 048 1 gusting 3 21.1
2020-Aug-09 01:32 039 1 gusting 3 21.1
2020-Aug-09 01:26 21.7
2020-Aug-09 01:25 044 1 gusting 3 21.7
2020-Aug-09 01:18 22.2
2020-Aug-09 01:11 22.2
2020-Aug-09 01:04 192 0 gusting 1 22.2
2020-Aug-09 00:57 22.8
2020-Aug-09 00:50 23.3
2020-Aug-09 00:43 23.3
2020-Aug-09 00:36 074 3 gusting 3 23.3
2020-Aug-09 00:29 312 1 gusting 3 23.9
2020-Aug-09 00:22 323 2 gusting 3 23.9
2020-Aug-09 00:15 334 1 gusting 4 24.4
2020-Aug-09 00:08 332 2 gusting 6 24.4
2020-Aug-09 00:01 358 1 gusting 5 23.9
2020-Aug-08 23:55 23.9
2020-Aug-08 23:54 029 1 gusting 3 23.9
2020-Aug-08 23:47 003 1 gusting 5 23.9
2020-Aug-08 23:41 314 2 gusting 5 24.4
2020-Aug-08 23:40 314 2 gusting 5 24.4
2020-Aug-08 23:33 312 0 gusting 6 24.4
2020-Aug-08 23:26 321 0 gusting 6 24.4
2020-Aug-08 23:19 338 1 gusting 3 23.9
2020-Aug-08 23:12 275 0 gusting 1 23.9
2020-Aug-08 23:05 24.4
2020-Aug-08 22:58 25.0
2020-Aug-08 22:51 25.0
2020-Aug-08 22:44 25.6
2020-Aug-08 22:37 046 5 gusting 13 26.1
2020-Aug-08 22:30 089 6 gusting 13 26.1
2020-Aug-08 22:23 049 5 gusting 10 26.7
2020-Aug-08 22:16 068 7 gusting 13 26.7
2020-Aug-08 22:10 074 7 gusting 13 26.7
2020-Aug-08 22:09 073 9 gusting 13 26.7
2020-Aug-08 22:02 045 6 gusting 13 26.7
2020-Aug-08 21:55 043 10 gusting 13 26.1
2020-Aug-08 21:48 056 4 gusting 8 25.6
2020-Aug-08 21:41 359 4 gusting 8 25.6
2020-Aug-08 21:27 343 1 gusting 5 25.6
2020-Aug-08 21:20 344 1 gusting 7 25.6
2020-Aug-08 21:13 004 2 gusting 6 25.6
2020-Aug-08 21:06 334 1 gusting 12 26.1
2020-Aug-08 20:59 321 10 gusting 12 26.7
2020-Aug-08 20:52 323 4 gusting 13 26.7
2020-Aug-08 20:45 323 7 gusting 13 26.7
2020-Aug-08 20:38 316 4 gusting 6 26.1
2020-Aug-08 20:31 319 4 gusting 6 26.1
2020-Aug-08 20:25 334 2 gusting 7 25.6
2020-Aug-08 20:24 334 3 gusting 7 25.6
2020-Aug-08 20:17 350 1 gusting 11 26.1
2020-Aug-08 20:10 050 1 gusting 10 26.1
2020-Aug-08 20:03 041 5 gusting 11 26.7
2020-Aug-08 19:56 044 6 gusting 13 26.7
2020-Aug-08 19:50 040 7 gusting 12 26.7
2020-Aug-08 19:49 040 9 gusting 13 26.7
2020-Aug-08 19:42 069 6 gusting 13 27.2
2020-Aug-08 19:35 071 6 gusting 13 27.2
2020-Aug-08 19:28 074 9 gusting 12 27.2
2020-Aug-08 19:21 046 8 gusting 10 27.2
2020-Aug-08 19:14 026 3 gusting 6 27.2
2020-Aug-08 19:07 085 5 gusting 6 27.2
2020-Aug-08 19:00 068 0 gusting 6 27.2
2020-Aug-08 18:53 067 3 gusting 8 27.8
2020-Aug-08 18:46 046 4 gusting 8 27.8
2020-Aug-08 18:40 035 5 gusting 8 28.3
2020-Aug-08 18:39 045 5 gusting 9 28.3
2020-Aug-08 18:32 028 2 gusting 9 28.3
2020-Aug-08 18:25 337 2 gusting 10 28.9
2020-Aug-08 18:18 314 6 gusting 13 28.9
2020-Aug-08 18:11 327 8 gusting 13 28.9
2020-Aug-08 18:04 333 4 gusting 13 29.4
2020-Aug-08 17:57 333 7 gusting 12 29.4
2020-Aug-08 17:52 338 2 gusting 12 29.4
2020-Aug-08 17:50 338 8 gusting 11 29.4
2020-Aug-08 17:43 335 6 gusting 16 29.4
2020-Aug-08 17:37 338 6 gusting 16 30.0
2020-Aug-08 17:32 354 7 gusting 13 30.0
2020-Aug-08 17:29 353 5 gusting 14 30.0
2020-Aug-08 17:22 333 5 gusting 22 30.0
2020-Aug-08 17:17 334 6 gusting 22 30.6
2020-Aug-08 17:15 331 2 gusting 13 30.6
2020-Aug-08 17:08 346 11 gusting 18 31.7
2020-Aug-08 17:02 020 2 gusting 15 31.7
2020-Aug-08 16:57 055 6 gusting 13 31.7
2020-Aug-08 16:54 081 6 gusting 13 32.2
2020-Aug-08 16:47 019 7 gusting 13 31.7
2020-Aug-08 16:42 008 6 gusting 13 31.7
2020-Aug-08 16:40 010 7 gusting 14 32.2
2020-Aug-08 16:33 010 2 gusting 17 32.2
2020-Aug-08 16:27 015 7 gusting 16 32.2
2020-Aug-08 16:22 030 8 gusting 12 32.8
2020-Aug-08 16:19 004 4 gusting 13 32.8
2020-Aug-08 16:12 019 6 gusting 18 32.2
2020-Aug-08 16:07 004 7 gusting 18 32.2
2020-Aug-08 16:05 005 9 gusting 23 32.2
2020-Aug-08 15:58 003 10 gusting 23 32.2
2020-Aug-08 15:54 009 5 gusting 21 32.8
2020-Aug-08 15:49 022 7 gusting 21 32.8
2020-Aug-08 15:44 010 11 gusting 19 32.8
2020-Aug-08 15:39 017 7 gusting 23 32.8
2020-Aug-08 15:34 035 8 gusting 23 33.3
2020-Aug-08 15:30 036 8 gusting 23 33.3
2020-Aug-08 15:24 023 13 gusting 22 32.8
2020-Aug-08 15:19 004 8 gusting 19 32.8
2020-Aug-08 15:14 017 4 gusting 19 32.8
2020-Aug-08 15:09 031 13 gusting 18 32.8
2020-Aug-08 15:04 057 6 gusting 24 32.8
2020-Aug-08 14:59 068 13 gusting 24 32.8
2020-Aug-08 14:55 056 13 gusting 24 32.8
2020-Aug-08 14:49 021 13 gusting 19 33.3
2020-Aug-08 14:44 355 7 gusting 26 32.8
2020-Aug-08 14:39 331 14 gusting 26 32.8
2020-Aug-08 14:34 352 6 gusting 21 33.3
2020-Aug-08 14:29 347 13 gusting 21 33.3
2020-Aug-08 14:24 348 13 gusting 21 33.3
2020-Aug-08 14:19 057 9 gusting 24 33.3
2020-Aug-08 14:14 027 10 gusting 24 33.3
2020-Aug-08 14:09 002 10 gusting 18 33.3
2020-Aug-08 14:04 012 7 gusting 19 33.3
2020-Aug-08 13:59 017 10 gusting 19 33.3
2020-Aug-08 13:54 345 5 gusting 16 33.3
2020-Aug-08 13:49 343 2 gusting 19 32.2
2020-Aug-08 13:44 002 6 gusting 19 32.8
2020-Aug-08 13:39 006 6 gusting 16 33.3
2020-Aug-08 13:34 341 9 gusting 16 33.3
2020-Aug-08 13:29 344 6 gusting 29 32.8
2020-Aug-08 13:24 359 8 gusting 29 33.9
2020-Aug-08 13:19 355 6 gusting 18 33.9
2020-Aug-08 13:14 341 5 gusting 18 33.3
2020-Aug-08 13:09 306 14 gusting 19 33.3
2020-Aug-08 13:04 009 6 gusting 19 32.8
2020-Aug-08 12:55 033 9 gusting 19 32.8
2020-Aug-08 12:50 014 13 gusting 17 33.3
2020-Aug-08 12:49 011 6 gusting 16 33.9
2020-Aug-08 12:41 011 9 gusting 16 34.4
2020-Aug-08 12:35 027 7 gusting 16 34.4
2020-Aug-08 12:34 024 8 gusting 16 34.4
2020-Aug-08 12:27 337 9 gusting 19 33.3
2020-Aug-08 12:20 331 8 gusting 19 33.3
2020-Aug-08 12:15 020 2 gusting 17 33.9
2020-Aug-08 12:13 021 3 gusting 18 33.3
2020-Aug-08 12:06 003 7 gusting 18 32.8
2020-Aug-08 12:00 008 10 gusting 16 33.3
2020-Aug-08 11:59 008 11 gusting 16 33.3
2020-Aug-08 11:52 040 9 gusting 18 33.3
2020-Aug-08 11:45 085 14 gusting 26 33.3
2020-Aug-08 11:40 346 5 gusting 26 32.8
2020-Aug-08 11:38 346 3 gusting 26 32.8
2020-Aug-08 11:31 350 3 gusting 17 32.2
2020-Aug-08 11:25 337 5 gusting 16 32.2
2020-Aug-08 11:24 342 9 gusting 17 32.8
2020-Aug-08 11:18 331 6 gusting 9 33.9
2020-Aug-08 11:10 003 4 gusting 11 33.3
2020-Aug-08 11:05 350 5 gusting 12 32.2
2020-Aug-08 11:03 351 9 gusting 13 32.2
2020-Aug-08 10:56 332 9 gusting 13 32.8
2020-Aug-08 10:50 314 5 gusting 11 31.7
2020-Aug-08 10:49 314 5 gusting 12 31.7
2020-Aug-08 10:42 335 3 gusting 17 32.2
2020-Aug-08 10:35 349 5 gusting 8 32.2
2020-Aug-08 10:30 033 5 gusting 12 31.7
2020-Aug-08 10:28 042 3 gusting 13 32.2
2020-Aug-08 10:21 030 6 gusting 14 32.2
2020-Aug-08 10:15 034 13 gusting 18 32.8
2020-Aug-08 10:14 036 13 gusting 18 32.8
2020-Aug-08 10:07 043 6 gusting 15 32.2
2020-Aug-08 10:00 052 13 gusting 15 32.8
2020-Aug-08 09:55 028 7 gusting 9 32.2
2020-Aug-08 09:53 013 6 gusting 9 32.2
2020-Aug-08 09:46 024 6 gusting 14 32.2
2020-Aug-08 09:40 028 8 gusting 13 32.2
2020-Aug-08 09:39 028 9 gusting 14 32.2
2020-Aug-08 09:32 343 6 gusting 13 31.7
2020-Aug-08 09:25 320 4 gusting 14 30.6
2020-Aug-08 09:20 327 7 gusting 13 30.6
2020-Aug-08 09:19 328 2 gusting 13 30.6
2020-Aug-08 09:11 341 3 gusting 10 31.1
2020-Aug-08 09:05 328 1 gusting 6 30.6
2020-Aug-08 09:04 327 3 gusting 6 30.6
2020-Aug-08 08:58 310 3 gusting 12 30.0
2020-Aug-08 08:50 313 9 gusting 12 30.0
2020-Aug-08 08:45 342 2 gusting 10 29.4
2020-Aug-08 08:43 331 3 gusting 11 29.4
2020-Aug-08 08:36 337 3 gusting 13 28.9
2020-Aug-08 08:30 336 3 gusting 13 28.9
2020-Aug-08 08:29 335 3 gusting 13 28.9
2020-Aug-08 08:22 345 4 gusting 11 28.9
2020-Aug-08 08:15 337 3 gusting 12 28.9
2020-Aug-08 08:10 333 5 gusting 10 28.3
2020-Aug-08 08:08 339 6 gusting 11 28.3
2020-Aug-08 08:01 338 3 gusting 11 28.9
2020-Aug-08 07:55 343 2 gusting 10 28.3
2020-Aug-08 07:54 343 2 gusting 11 28.3
2020-Aug-08 07:47 335 1 gusting 13 28.3
2020-Aug-08 07:40 341 1 gusting 14 28.3
2020-Aug-08 07:35 333 2 gusting 13 27.8
2020-Aug-08 07:33 336 3 gusting 14 27.8
2020-Aug-08 07:26 337 2 gusting 6 28.3
2020-Aug-08 07:20 341 0 gusting 6 28.3
2020-Aug-08 07:12 339 1 gusting 7 27.2
2020-Aug-08 07:06 338 4 gusting 7 27.2
2020-Aug-08 07:00 329 0 gusting 6 27.2
2020-Aug-08 06:58 321 1 gusting 6 27.2
2020-Aug-08 06:51 314 2 gusting 7 26.7
2020-Aug-08 06:45 304 3 gusting 7 26.1
2020-Aug-08 06:44 304 6 gusting 8 25.6
2020-Aug-08 06:37 273 6 gusting 8 25.6
2020-Aug-08 06:30 294 4 gusting 6 25.0
2020-Aug-08 06:25 303 5 gusting 6 25.6
2020-Aug-08 06:24 303 3 gusting 6 25.6
2020-Aug-08 06:16 280 3 gusting 6 26.7
2020-Aug-08 06:10 27.8
2020-Aug-08 06:09 27.8
2020-Aug-08 06:02 26.7
2020-Aug-08 05:55 175 1 gusting 2 26.7
2020-Aug-08 05:48 119 1 gusting 1 25.6
2020-Aug-08 05:41 25.0
2020-Aug-08 05:34 24.4
2020-Aug-08 05:28 189 0 gusting 2 23.3
2020-Aug-08 05:20 278 0 gusting 1 22.2
2020-Aug-08 05:14 21.1
2020-Aug-08 05:06 20.0
2020-Aug-08 04:59 19.4
2020-Aug-08 04:52 19.4
2020-Aug-08 04:45 19.4
2020-Aug-08 04:40 078 0 gusting 2 19.4
2020-Aug-08 04:38 083 1 gusting 3 19.4
2020-Aug-08 04:31 097 1 gusting 3 19.4
2020-Aug-08 04:25 327 0 gusting 3 19.4
2020-Aug-08 04:24 19.4
2020-Aug-08 04:17 135 1 gusting 2 19.4
2020-Aug-08 04:10 148 0 gusting 2 19.4
2020-Aug-08 04:03 20.0
2020-Aug-08 03:56 081 1 gusting 4 20.0
2020-Aug-08 03:49 072 3 gusting 4 19.4
2020-Aug-08 03:42 054 2 gusting 4 19.4
2020-Aug-08 03:36 074 2 gusting 3 20.0
2020-Aug-08 03:28 094 1 gusting 3 20.0
2020-Aug-08 03:21 070 3 gusting 3 20.0
2020-Aug-08 03:14 009 1 gusting 3 20.0
2020-Aug-08 03:07 046 2 gusting 3 20.6
2020-Aug-08 03:00 053 1 gusting 5 20.6
2020-Aug-08 02:55 063 1 gusting 5 20.6
2020-Aug-08 02:53 069 3 gusting 6 20.6
2020-Aug-08 02:46 042 3 gusting 6 20.6
2020-Aug-08 02:40 052 2 gusting 6 20.6
2020-Aug-08 02:39 052 2 gusting 6 20.6
2020-Aug-08 02:32 055 3 gusting 6 20.6
2020-Aug-08 02:25 062 2 gusting 5 20.0
2020-Aug-08 02:18 025 3 gusting 5 20.6
2020-Aug-08 02:11 21.1
2020-Aug-08 02:04 073 0 gusting 6 21.1
2020-Aug-08 01:57 098 2 gusting 6 21.7
2020-Aug-08 01:50 21.7
2020-Aug-08 01:43 005 3 gusting 6 21.7
2020-Aug-08 01:36 009 1 gusting 6 21.7
2020-Aug-08 01:29 307 2 gusting 6 22.2
2020-Aug-08 01:22 313 3 gusting 6 22.2
2020-Aug-08 01:15 22.2
2020-Aug-08 01:10 016 0 gusting 4 22.8
2020-Aug-08 01:08 007 3 gusting 4 22.8
2020-Aug-08 01:01 323 1 gusting 7 22.8
2020-Aug-08 00:55 318 3 gusting 7 22.2
2020-Aug-08 00:54 319 3 gusting 7 22.2
2020-Aug-08 00:47 346 3 gusting 5 21.1
2020-Aug-08 00:40 21.1
2020-Aug-08 00:33 21.7
2020-Aug-08 00:26 21.7
2020-Aug-08 00:19 101 0 gusting 3 21.7
2020-Aug-08 00:12 21.7
2020-Aug-08 00:05 21.7
2020-Aug-07 23:58 22.2
2020-Aug-07 23:51 194 0 gusting 3 22.8
2020-Aug-07 23:44 22.8
2020-Aug-07 23:37 22.8
2020-Aug-07 23:30 22.8
2020-Aug-07 23:25 23.3
2020-Aug-07 23:23 098 1 gusting 3 23.3
2020-Aug-07 23:16 23.3
2020-Aug-07 23:10 23.3
2020-Aug-07 23:09 23.3
2020-Aug-07 23:02 324 0 gusting 8 23.9
2020-Aug-07 22:55 326 5 gusting 10 23.9
2020-Aug-07 22:48 315 6 gusting 10 23.9
2020-Aug-07 22:41 319 5 gusting 9 23.9
2020-Aug-07 22:34 316 1 gusting 4 23.9
2020-Aug-07 22:27 344 0 gusting 7 23.9
2020-Aug-07 22:20 331 1 gusting 7 24.4
2020-Aug-07 22:13 323 3 gusting 5 24.4
2020-Aug-07 22:06 356 2 gusting 10 25.0
2020-Aug-07 21:59 063 5 gusting 13 25.6
2020-Aug-07 21:52 069 11 gusting 13 25.6
2020-Aug-07 21:45 061 11 gusting 16 25.6
2020-Aug-07 21:40 057 10 gusting 16 25.6
2020-Aug-07 21:38 055 13 gusting 16 25.6
2020-Aug-07 21:31 051 11 gusting 13 25.6
2020-Aug-07 21:25 060 10 gusting 15 26.1
2020-Aug-07 21:24 057 12 gusting 15 26.1
2020-Aug-07 21:18 040 13 gusting 15 26.1
2020-Aug-07 21:10 036 13 gusting 14 25.6
2020-Aug-07 21:03 060 11 gusting 14 26.1
2020-Aug-07 20:56 033 13 gusting 16 26.1
2020-Aug-07 20:50 057 12 gusting 16 26.1
2020-Aug-07 20:49 058 13 gusting 16 26.1
2020-Aug-07 20:42 056 13 gusting 16 26.1
2020-Aug-07 20:35 049 13 gusting 13 26.1
2020-Aug-07 20:30 028 9 gusting 14 26.1
2020-Aug-07 20:28 035 10 gusting 14 26.1
2020-Aug-07 20:21 058 11 gusting 14 26.1
2020-Aug-07 20:15 047 10 gusting 13 26.1
2020-Aug-07 20:14 047 11 gusting 13 26.1
2020-Aug-07 20:08 054 7 gusting 12 26.7
2020-Aug-07 20:00 026 7 gusting 12 26.7